Time;durP1;ratioP1;P1;durP2;ratioP2;P2;SDS_P1;SDS_P2;PMS_P1;PMS_P2;Temp;Humidity;BMP_temperature;BMP_pressure;BME280_temperature;BME280_humidity;BME280_pressure;Samples;Min_cycle;Max_cycle;Signal;HPM_P1;HPM_P2
2022/05/06 00:00:34;;;;;;;6.35;4.35;;;;;;;;;;2586091;23;20067;-78
2022/05/06 00:01:34;;;;;;;;;;;;;;;;;;2587674;22;20300;-78
2022/05/06 00:02:34;;;;;;;6.37;4.50;;;;;;;;;;2586573;23;20033;-78
2022/05/06 00:03:37;;;;;;;4.75;4.07;;;;;;;;;;2569162;23;20008;-78
2022/05/06 00:04:37;;;;;;;7.05;3.97;;;;;;;;;;2569604;23;20007;-78
2022/05/06 00:05:37;;;;;;;;;;;;;;;;;;2570033;23;20347;-78
2022/05/06 00:06:38;;;;;;;6.33;4.43;;;;;;;;;;2569051;23;19998;-78
2022/05/06 00:07:39;;;;;;;5.28;3.63;;;;;;;;;;2573505;23;19996;-78
2022/05/06 00:08:39;;;;;;;7.10;4.57;;;;;;;;;;2569373;23;19996;-78
2022/05/06 00:09:40;;;;;;;;;;;;;;;;;;2574164;23;20000;-78
2022/05/06 00:10:40;;;;;;;4.53;3.23;;;;;;;;;;2586643;23;20288;-78
2022/05/06 00:11:40;;;;;;;6.05;3.72;;;;;;;;;;2586658;22;20062;-79
2022/05/06 00:12:42;;;;;;;;;;;;;;;;;;2569962;23;20000;-78
2022/05/06 00:13:43;;;;;;;6.97;4.07;;;;;;;;;;2569347;23;19965;-78
2022/05/06 00:14:43;;;;;;;;;;;;;;;;;;2586455;23;20443;-78
2022/05/06 00:15:43;;;;;;;4.73;3.83;;;;;;;;;;2586721;23;19915;-78
2022/05/06 00:16:44;;;;;;;9.57;4.07;;;;;;;;;;2569211;23;20006;-78
2022/05/06 00:17:44;;;;;;;5.72;3.35;;;;;;;;;;2556984;23;20431;-78
2022/05/06 00:18:45;;;;;;;6.35;4.90;;;;;;;;;;2556732;23;19997;-78
2022/05/06 00:19:46;;;;;;;;;;;;;;;;;;2557317;23;20075;-79
2022/05/06 00:20:46;;;;;;;4.73;3.93;;;;;;;;;;2573439;23;19903;-78
2022/05/06 00:21:46;;;;;;;5.32;3.72;;;;;;;;;;2581693;23;19994;-78
2022/05/06 00:22:47;;;;;;;;;;;;;;;;;;2586624;23;19992;-78
2022/05/06 00:23:47;;;;;;;5.87;4.03;;;;;;;;;;2586694;23;19908;-78
2022/05/06 00:24:48;;;;;;;4.90;4.15;;;;;;;;;;2586506;23;19988;-78
2022/05/06 00:25:48;;;;;;;5.32;4.03;;;;;;;;;;2586610;23;20422;-78
2022/05/06 00:26:49;;;;;;;9.88;4.88;;;;;;;;;;2568918;23;19996;-78
2022/05/06 00:27:51;;;;;;;5.63;4.20;;;;;;;;;;2556917;23;19993;-78
2022/05/06 00:28:52;;;;;;;4.10;3.60;;;;;;;;;;2574245;23;20315;-78
2022/05/06 00:29:53;;;;;;;;;;;;;;;;;;2569736;23;20012;-78
2022/05/06 00:30:53;;;;;;;5.80;3.80;;;;;;;;;;2556439;23;19904;-78
2022/05/06 00:31:53;;;;;;;7.72;3.33;;;;;;;;;;2556642;23;20060;-78
2022/05/06 00:32:54;;;;;;;5.20;3.33;;;;;;;;;;2556822;23;19989;-78
2022/05/06 00:33:54;;;;;;;;;;;;;;;;;;2557425;23;20332;-78
2022/05/06 00:34:55;;;;;;;4.90;3.67;;;;;;;;;;2556872;23;19908;-78
2022/05/06 00:35:57;;;;;;;5.53;3.40;;;;;;;;;;2556747;23;20386;-78
2022/05/06 00:36:57;;;;;;;3.58;2.92;;;;;;;;;;2573838;23;20054;-78
2022/05/06 00:37:58;;;;;;;;;;;;;;;;;;2569929;23;20056;-78
2022/05/06 00:38:58;;;;;;;3.17;2.87;;;;;;;;;;2556805;23;19908;-78
2022/05/06 00:39:59;;;;;;;4.57;3.45;;;;;;;;;;2556762;23;20080;-78
2022/05/06 00:40:59;;;;;;;4.80;3.13;;;;;;;;;;2556901;23;19997;-78
2022/05/06 00:42:00;;;;;;;;;;;;;;;;;;2569722;23;19999;-78
2022/05/06 00:43:00;;;;;;;10.17;3.47;;;;;;;;;;2586099;23;19907;-78
2022/05/06 00:44:03;;;;;;;4.45;3.03;;;;;;;;;;2568951;23;20088;-78
2022/05/06 00:45:07;;;;;;;4.90;3.28;;;;;;;;;;2574218;23;20004;-78
2022/05/06 00:46:12;;;;;;;3.83;3.20;;;;;;;;;;2586558;23;20007;-78
2022/05/06 00:47:14;;;;;;;5.72;3.63;;;;;;;;;;2571065;23;20324;-78
2022/05/06 00:48:18;;;;;;;7.32;3.50;;;;;;;;;;2573580;23;20000;-78
2022/05/06 00:49:20;;;;;;;4.88;3.72;;;;;;;;;;2569111;23;19996;-78
2022/05/06 00:50:20;;;;;;;3.95;3.45;;;;;;;;;;2556675;23;20000;-78
2022/05/06 00:51:21;;;;;;;;;;;;;;;;;;2573750;23;20047;-78
2022/05/06 00:52:21;;;;;;;6.17;3.50;;;;;;;;;;2586425;23;19937;-78
2022/05/06 00:53:21;;;;;;;4.60;3.47;;;;;;;;;;2586602;23;19996;-78
2022/05/06 00:54:23;;;;;;;4.75;3.53;;;;;;;;;;2586568;23;19996;-78
2022/05/06 00:55:26;;;;;;;3.60;3.10;;;;;;;;;;2586538;23;19996;-78
2022/05/06 00:56:27;;;;;;;5.55;3.33;;;;;;;;;;2586598;23;20074;-78
2022/05/06 00:57:35;;;;;;;;;;;;;;;;;;2587094;23;20335;-78
2022/05/06 00:58:35;;;;;;;5.60;4.15;;;;;;;;;;2586468;23;20302;-78
2022/05/06 01:00:55;;;;;;;4.53;3.15;;;;;;;;;;2586517;22;20269;-78
2022/05/06 01:01:57;;;;;;;6.55;3.50;;;;;;;;;;2586688;23;20403;-79
2022/05/06 01:02:58;;;;;;;6.72;3.42;;;;;;;;;;2586223;23;20312;-78
2022/05/06 01:03:58;;;;;;;;;;;;;;;;;;2587562;23;19992;-78
2022/05/06 01:05:00;;;;;;;4.27;3.57;;;;;;;;;;2569152;23;20335;-78
2022/05/06 01:06:03;;;;;;;4.78;3.20;;;;;;;;;;2573472;23;19998;-78
2022/05/06 01:07:03;;;;;;;4.75;2.95;;;;;;;;;;2582332;23;20338;-78
2022/05/06 01:08:04;;;;;;;;;;;;;;;;;;2587147;23;20003;-78
2022/05/06 01:09:05;;;;;;;3.53;3.20;;;;;;;;;;2586475;23;19907;-78
2022/05/06 01:10:06;;;;;;;4.10;3.05;;;;;;;;;;2586543;23;20374;-79
2022/05/06 01:11:12;;;;;;;3.15;2.85;;;;;;;;;;2569261;23;19996;-78
2022/05/06 01:12:12;;;;;;;4.97;3.47;;;;;;;;;;2557572;23;20059;-78
2022/05/06 01:13:13;;;;;;;;;;;;;;;;;;2573885;23;20438;-78
2022/05/06 01:14:31;;;;;;;5.17;3.47;;;;;;;;;;2586663;23;19903;-78
2022/05/06 01:15:31;;;;;;;3.08;2.70;;;;;;;;;;2586667;23;19992;-78
2022/05/06 01:16:33;;;;;;;;;;;;;;;;;;2569305;23;20020;-78
2022/05/06 01:17:33;;;;;;;3.65;2.63;;;;;;;;;;2573583;23;19914;-78
2022/05/06 01:18:34;;;;;;;;;;;;;;;;;;2586861;23;20280;-78
2022/05/06 01:19:35;;;;;;;5.65;3.08;;;;;;;;;;2586664;23;19914;-78
2022/05/06 01:20:41;;;;;;;5.57;3.35;;;;;;;;;;2586502;23;20042;-78
2022/05/06 01:21:49;;;;;;;2.88;2.60;;;;;;;;;;2586738;22;20302;-78
2022/05/06 01:23:00;;;;;;;4.55;3.55;;;;;;;;;;2586676;23;19992;-78
2022/05/06 01:24:01;;;;;;;4.15;2.83;;;;;;;;;;2586586;23;20077;-78
2022/05/06 01:25:02;;;;;;;3.75;2.60;;;;;;;;;;2569253;23;20427;-78
2022/05/06 01:26:02;;;;;;;;;;;;;;;;;;2573853;23;20024;-78
2022/05/06 01:27:06;;;;;;;4.97;3.23;;;;;;;;;;2586672;23;20218;-78
2022/05/06 01:28:07;;;;;;;3.55;3.03;;;;;;;;;;2582373;23;20331;-78
2022/05/06 01:29:09;;;;;;;;;;;;;;;;;;2587133;23;20408;-78
2022/05/06 01:30:12;;;;;;;5.97;3.22;;;;;;;;;;2586619;23;19907;-78
2022/05/06 01:31:21;;;;;;;5.47;3.15;;;;;;;;;;2568720;23;20010;-78
2022/05/06 01:32:22;;;;;;;2.95;2.60;;;;;;;;;;2575128;23;20001;-78
2022/05/06 01:33:24;;;;;;;4.10;2.97;;;;;;;;;;2586421;23;20053;-78
2022/05/06 01:34:28;;;;;;;3.85;2.90;;;;;;;;;;2586435;23;20061;-78
2022/05/06 01:35:30;;;;;;;5.65;3.15;;;;;;;;;;2586531;23;20008;-78
2022/05/06 01:36:30;;;;;;;5.70;3.83;;;;;;;;;;2586274;23;20075;-78
2022/05/06 01:37:34;;;;;;;;;;;;;;;;;;2569512;23;20036;-78
2022/05/06 01:38:49;;;;;;;4.32;2.72;;;;;;;;;;2569084;23;19990;-78
2022/05/06 01:39:55;;;;;;;3.78;3.00;;;;;;;;;;2575859;23;19992;-78
2022/05/06 01:41:04;;;;;;;6.43;3.55;;;;;;;;;;2586335;22;20008;-78
2022/05/06 01:42:08;;;;;;;4.13;3.28;;;;;;;;;;2569181;23;20332;-78
2022/05/06 01:43:11;;;;;;;4.40;3.03;;;;;;;;;;2573763;23;20071;-78
2022/05/06 01:44:14;;;;;;;3.97;3.30;;;;;;;;;;2586352;23;19999;-78
2022/05/06 01:45:16;;;;;;;4.55;2.80;;;;;;;;;;2586434;23;20307;-77
2022/05/06 01:46:19;;;;;;;6.25;3.30;;;;;;;;;;2586452;23;20057;-78
2022/05/06 01:47:26;;;;;;;3.92;3.47;;;;;;;;;;2586120;23;20071;-77
2022/05/06 01:48:28;;;;;;;6.53;3.25;;;;;;;;;;2569315;23;20434;-77
2022/05/06 01:49:31;;;;;;;3.55;2.63;;;;;;;;;;2556107;23;20000;-78
2022/05/06 01:50:36;;;;;;;4.05;3.05;;;;;;;;;;2569429;23;20428;-78
2022/05/06 01:51:42;;;;;;;3.83;3.17;;;;;;;;;;2581669;22;20019;-78
2022/05/06 01:52:46;;;;;;;8.20;3.40;;;;;;;;;;2586535;23;19992;-78
2022/05/06 01:53:46;;;;;;;3.00;2.65;;;;;;;;;;2587288;23;20030;-78
2022/05/06 01:54:47;;;;;;;;;;;;;;;;;;2587734;23;20387;-78
2022/05/06 01:55:47;;;;;;;15.30;6.97;;;;;;;;;;2583354;23;19934;-78
2022/05/06 01:56:50;;;;;;;10.23;5.30;;;;;;;;;;2587260;23;20312;-78
2022/05/06 01:57:53;;;;;;;8.50;4.28;;;;;;;;;;2587325;23;19999;-78
2022/05/06 01:58:59;;;;;;;5.97;3.83;;;;;;;;;;2587578;23;19999;-78
2022/05/06 02:00:02;;;;;;;7.45;4.22;;;;;;;;;;2587084;23;19992;-78
2022/05/06 02:01:07;;;;;;;5.80;4.30;;;;;;;;;;2587041;22;19992;-78
2022/05/06 02:02:15;;;;;;;5.18;3.45;;;;;;;;;;2587274;23;19992;-78
2022/05/06 02:05:56;;;;;;;5.68;3.30;;;;;;;;;;2586690;23;20000;-78
2022/05/06 02:06:56;;;;;;;4.45;2.85;;;;;;;;;;2586897;23;19996;-78
2022/05/06 02:07:57;;;;;;;;;;;;;;;;;;2587792;23;20118;-78
2022/05/06 02:08:57;;;;;;;5.03;3.53;;;;;;;;;;2587109;23;19904;-78
2022/05/06 02:09:57;;;;;;;;;;;;;;;;;;2587671;23;20051;-78
2022/05/06 02:11:01;;;;;;;9.40;3.73;;;;;;;;;;2587094;22;19909;-78
2022/05/06 02:12:02;;;;;;;3.97;2.92;;;;;;;;;;2587213;23;20007;-78
2022/05/06 02:13:02;;;;;;;;;;;;;;;;;;2587819;23;20134;-78
2022/05/06 02:14:03;;;;;;;4.43;3.17;;;;;;;;;;2587210;23;20319;-78
2022/05/06 02:15:03;;;;;;;;;;;;;;;;;;2583001;23;20000;-77
2022/05/06 02:16:04;;;;;;;5.22;2.97;;;;;;;;;;2569843;23;20007;-77
2022/05/06 02:17:05;;;;;;;5.35;3.47;;;;;;;;;;2574012;23;20051;-77
2022/05/06 02:18:09;;;;;;;5.75;3.30;;;;;;;;;;2582399;23;20000;-77
2022/05/06 02:19:10;;;;;;;9.77;3.17;;;;;;;;;;2582560;23;19996;-78
2022/05/06 02:20:11;;;;;;;;;;;;;;;;;;2587805;23;20020;-78
2022/05/06 02:21:11;;;;;;;4.15;3.05;;;;;;;;;;2574177;23;19908;-77
2022/05/06 02:22:11;;;;;;;;;;;;;;;;;;2557787;23;20447;-77
2022/05/06 02:23:12;;;;;;;6.20;3.57;;;;;;;;;;2573997;23;19966;-78
2022/05/06 02:24:13;;;;;;;;;;;;;;;;;;2570475;23;20020;-78
2022/05/06 02:25:13;;;;;;;7.57;3.43;;;;;;;;;;2574238;23;20291;-78
2022/05/06 02:26:13;;;;;;;8.40;3.63;;;;;;;;;;2569808;23;20043;-77
2022/05/06 02:27:14;;;;;;;;;;;;;;;;;;2574831;23;20020;-78
2022/05/06 02:28:14;;;;;;;6.07;3.67;;;;;;;;;;2569957;23;19914;-78
2022/05/06 02:29:14;;;;;;;;;;;;;;;;;;2574628;23;20035;-78
2022/05/06 02:34:16;;;;;;;4.32;3.70;;;;;;;;;;2587685;23;20000;-78
2022/05/06 02:35:17;;;;;;;4.63;3.25;;;;;;;;;;2583373;23;19996;-77
2022/05/06 02:36:17;;;;;;;;;;;;;;;;;;2585547;23;20023;-78
2022/05/06 02:37:17;;;;;;;6.17;3.30;;;;;;;;;;2587490;23;19907;-78
2022/05/06 02:38:19;;;;;;;4.93;4.28;;;;;;;;;;2587386;23;20003;-78
2022/05/06 02:39:20;;;;;;;5.20;3.67;;;;;;;;;;2587421;23;20050;-78
2022/05/06 02:40:20;;;;;;;;;;;;;;;;;;2587914;23;19996;-78
2022/05/06 02:41:20;;;;;;;4.47;3.17;;;;;;;;;;2570145;23;19908;-78
2022/05/06 02:42:21;;;;;;;4.57;3.20;;;;;;;;;;2574272;23;20304;-78
2022/05/06 02:43:29;;;;;;;;;;;;;;;;;;2587901;23;20003;-78
2022/05/06 02:44:29;;;;;;;4.07;3.50;;;;;;;;;;2587221;23;19916;-78
2022/05/06 02:45:29;;;;;;;;;;;;;;;;;;2587666;23;19992;-78
2022/05/06 02:46:34;;;;;;;8.02;4.72;;;;;;;;;;2587334;23;19903;-78
2022/05/06 02:47:35;;;;;;;10.23;6.03;;;;;;;;;;2587012;23;20076;-78
2022/05/06 02:48:35;;;;;;;;;;;;;;;;;;2570513;23;20012;-78
2022/05/06 02:49:36;;;;;;;11.03;6.43;;;;;;;;;;2557329;23;20247;-78
2022/05/06 02:50:36;;;;;;;;;;;;;;;;;;2557856;23;20005;-78
2022/05/06 02:51:37;;;;;;;8.68;5.93;;;;;;;;;;2573597;23;20322;-78
2022/05/06 02:52:37;;;;;;;;;;;;;;;;;;2587469;23;20003;-78
2022/05/06 02:53:37;;;;;;;8.77;4.50;;;;;;;;;;2587319;23;19959;-78
2022/05/06 02:54:40;;;;;;;5.95;4.43;;;;;;;;;;2569541;23;20398;-78
2022/05/06 02:55:41;;;;;;;6.00;5.22;;;;;;;;;;2557676;23;20001;-78
2022/05/06 02:56:41;;;;;;;;;;;;;;;;;;2557788;23;20017;-78
2022/05/06 02:57:42;;;;;;;8.30;5.23;;;;;;;;;;2556773;23;19904;-78
2022/05/06 02:58:42;;;;;;;;;;;;;;;;;;2574223;23;20315;-78
2022/05/06 02:59:43;;;;;;;8.20;4.60;;;;;;;;;;2587097;23;19904;-78
2022/05/06 03:00:43;;;;;;;;;;;;;;;;;;2570302;23;20386;-78
2022/05/06 03:01:44;;;;;;;8.87;5.07;;;;;;;;;;2573710;23;20338;-78
2022/05/06 03:02:44;;;;;;;10.18;5.90;;;;;;;;;;2586651;23;20003;-79
2022/05/06 03:03:45;;;;;;;;;;;;;;;;;;2587405;23;20081;-79
2022/05/06 03:04:45;;;;;;;8.33;6.27;;;;;;;;;;2586647;23;20322;-79
2022/05/06 03:05:45;;;;;;;9.70;6.15;;;;;;;;;;2586794;23;20011;-79
2022/05/06 03:06:46;;;;;;;;;;;;;;;;;;2583335;23;20404;-79
2022/05/06 03:07:46;;;;;;;9.45;4.88;;;;;;;;;;2582852;23;19904;-78
2022/05/06 03:08:49;;;;;;;8.05;5.40;;;;;;;;;;2586762;23;19999;-79
2022/05/06 03:09:52;;;;;;;6.10;5.07;;;;;;;;;;2587038;23;20032;-78
2022/05/06 03:10:53;;;;;;;6.97;5.22;;;;;;;;;;2586972;22;20011;-78
2022/05/06 03:11:54;;;;;;;;;;;;;;;;;;2587231;23;20324;-79
2022/05/06 03:12:58;;;;;;;5.43;4.40;;;;;;;;;;2569660;23;19923;-78
2022/05/06 03:13:58;;;;;;;5.82;4.28;;;;;;;;;;2574462;23;19996;-78
2022/05/06 03:15:03;;;;;;;;;;;;;;;;;;2587216;23;20015;-78
2022/05/06 03:16:03;;;;;;;5.03;3.33;;;;;;;;;;2569403;23;19914;-79
2022/05/06 03:17:04;;;;;;;;;;;;;;;;;;2557569;23;20495;-78
2022/05/06 03:18:04;;;;;;;5.20;3.97;;;;;;;;;;2573760;23;19907;-78
2022/05/06 03:19:05;;;;;;;;;;;;;;;;;;2587449;23;20003;-78
2022/05/06 03:20:09;;;;;;;7.60;4.00;;;;;;;;;;2586915;23;19911;-78
2022/05/06 03:21:09;;;;;;;8.85;3.70;;;;;;;;;;2569531;23;20007;-78
2022/05/06 03:22:09;;;;;;;;;;;;;;;;;;2574358;23;20264;-79
2022/05/06 03:23:12;;;;;;;4.40;3.63;;;;;;;;;;2586496;23;19969;-78
2022/05/06 03:24:12;;;;;;;6.03;3.90;;;;;;;;;;2557088;23;19997;-79
2022/05/06 03:25:16;;;;;;;;;;;;;;;;;;2557658;23;20433;-79
2022/05/06 03:26:19;;;;;;;4.80;3.33;;;;;;;;;;2586313;23;19987;-78
2022/05/06 03:28:39;;;;;;;4.50;3.88;;;;;;;;;;2586903;23;20000;-78
2022/05/06 03:29:39;;;;;;;;;;;;;;;;;;2587196;23;20403;-78
2022/05/06 03:30:47;;;;;;;5.43;3.58;;;;;;;;;;2569446;23;19954;-78
2022/05/06 03:31:48;;;;;;;5.53;3.78;;;;;;;;;;2562335;23;20008;-79
2022/05/06 03:32:51;;;;;;;;;;;;;;;;;;2574310;23;19988;-78
2022/05/06 03:33:54;;;;;;;4.93;3.88;;;;;;;;;;2586858;23;19907;-78
2022/05/06 03:34:55;;;;;;;6.25;3.63;;;;;;;;;;2586582;23;20002;-78
2022/05/06 03:35:56;;;;;;;5.28;3.58;;;;;;;;;;2582838;23;20019;-78
2022/05/06 03:36:56;;;;;;;;;;;;;;;;;;2587442;23;20353;-78
2022/05/06 03:38:02;;;;;;;4.47;3.77;;;;;;;;;;2587237;23;19903;-79
2022/05/06 03:39:06;;;;;;;4.05;3.65;;;;;;;;;;2586153;23;19992;-78
2022/05/06 03:40:07;;;;;;;5.35;3.83;;;;;;;;;;2569344;23;19997;-78
2022/05/06 03:41:10;;;;;;;3.63;3.33;;;;;;;;;;2557245;23;20092;-78
2022/05/06 03:42:11;;;;;;;7.18;3.70;;;;;;;;;;2574133;23;20020;-78
2022/05/06 03:43:11;;;;;;;;;;;;;;;;;;2587471;23;20399;-79
2022/05/06 03:44:14;;;;;;;4.13;3.73;;;;;;;;;;2581590;23;20169;-78
2022/05/06 03:45:15;;;;;;;7.95;4.00;;;;;;;;;;2586332;23;20034;-79
2022/05/06 03:46:22;;;;;;;;;;;;;;;;;;2569915;23;20087;-79
2022/05/06 03:47:23;;;;;;;8.20;3.40;;;;;;;;;;2575238;23;19908;-78
2022/05/06 03:48:26;;;;;;;;;;;;;;;;;;2587295;23;20003;-78
2022/05/06 03:49:30;;;;;;;5.28;3.50;;;;;;;;;;2569552;23;19908;-78
2022/05/06 03:51:55;;;;;;;5.07;3.78;;;;;;;;;;2586760;23;20368;-78
2022/05/06 03:52:55;;;;;;;4.00;3.40;;;;;;;;;;2586885;23;20408;-78
2022/05/06 03:53:56;;;;;;;;;;;;;;;;;;2569756;23;20035;-78
2022/05/06 03:54:57;;;;;;;6.40;3.50;;;;;;;;;;2569464;23;19904;-78
2022/05/06 03:55:57;;;;;;;5.68;4.07;;;;;;;;;;2586052;23;20503;-79
2022/05/06 03:56:58;;;;;;;;;;;;;;;;;;2587470;23;19988;-78
2022/05/06 03:57:58;;;;;;;5.60;3.38;;;;;;;;;;2569561;23;19979;-78
2022/05/06 03:58:58;;;;;;;6.18;4.22;;;;;;;;;;2573930;23;20044;-78
2022/05/06 03:59:59;;;;;;;7.22;4.03;;;;;;;;;;2581946;23;19996;-78
2022/05/06 04:01:02;;;;;;;;;;;;;;;;;;2569562;23;20000;-79
2022/05/06 04:02:07;;;;;;;5.53;3.92;;;;;;;;;;2574156;23;19912;-78
2022/05/06 04:03:08;;;;;;;5.10;3.65;;;;;;;;;;2586698;23;20052;-78
2022/05/06 04:04:08;;;;;;;5.43;4.03;;;;;;;;;;2569410;23;19997;-78
2022/05/06 04:05:09;;;;;;;;;;;;;;;;;;2574191;23;20023;-79
2022/05/06 04:06:13;;;;;;;6.40;4.10;;;;;;;;;;2569265;23;19954;-79
2022/05/06 04:07:14;;;;;;;5.28;4.03;;;;;;;;;;2570078;23;20000;-79
2022/05/06 04:08:14;;;;;;;;;;;;;;;;;;2586929;23;20487;-79
2022/05/06 04:09:15;;;;;;;6.17;4.23;;;;;;;;;;2582248;23;19903;-79
2022/05/06 04:10:15;;;;;;;7.65;4.15;;;;;;;;;;2586197;22;20485;-79
2022/05/06 04:11:19;;;;;;;6.35;3.58;;;;;;;;;;2586855;22;20003;-78
2022/05/06 04:12:21;;;;;;;4.90;3.90;;;;;;;;;;2569207;23;20005;-79
2022/05/06 04:13:21;;;;;;;5.60;4.07;;;;;;;;;;2569669;23;19992;-78
2022/05/06 04:14:24;;;;;;;;;;;;;;;;;;2587029;23;20314;-79
2022/05/06 04:15:25;;;;;;;5.10;3.60;;;;;;;;;;2569180;23;19904;-79
2022/05/06 04:16:27;;;;;;;;;;;;;;;;;;2573950;23;20022;-79
2022/05/06 04:17:27;;;;;;;6.03;3.83;;;;;;;;;;2581880;23;19907;-79
2022/05/06 04:18:29;;;;;;;;;;;;;;;;;;2586972;23;20027;-79
2022/05/06 04:19:32;;;;;;;7.32;3.50;;;;;;;;;;2569441;23;20314;-79
2022/05/06 04:23:29;;;;;;;5.65;3.38;;;;;;;;;;2586849;23;19996;-78
2022/05/06 04:24:29;;;;;;;4.47;3.63;;;;;;;;;;2583351;23;20410;-78
2022/05/06 04:25:29;;;;;;;;;;;;;;;;;;2587265;23;19996;-78
2022/05/06 04:26:30;;;;;;;5.33;3.37;;;;;;;;;;2586874;23;19982;-78
2022/05/06 04:27:31;;;;;;;4.93;3.60;;;;;;;;;;2569209;23;20001;-78
2022/05/06 04:28:31;;;;;;;3.67;3.35;;;;;;;;;;2556901;23;19993;-79
2022/05/06 04:29:34;;;;;;;4.47;3.38;;;;;;;;;;2573552;23;20419;-78
2022/05/06 04:30:35;;;;;;;6.07;4.32;;;;;;;;;;2586518;23;20063;-78
2022/05/06 04:31:36;;;;;;;6.60;3.67;;;;;;;;;;2586336;22;20050;-78
2022/05/06 04:32:36;;;;;;;4.97;3.70;;;;;;;;;;2586485;23;20459;-79
2022/05/06 04:33:39;;;;;;;6.82;3.67;;;;;;;;;;2586760;23;20415;-79
2022/05/06 04:34:39;;;;;;;4.70;3.65;;;;;;;;;;2586494;23;19996;-78
2022/05/06 04:35:43;;;;;;;6.70;4.15;;;;;;;;;;2586650;23;20288;-78
2022/05/06 04:36:43;;;;;;;4.15;2.97;;;;;;;;;;2569109;23;20465;-78
2022/05/06 04:37:44;;;;;;;5.50;3.42;;;;;;;;;;2573514;23;19989;-79
2022/05/06 04:38:44;;;;;;;7.35;3.92;;;;;;;;;;2581642;23;19992;-78
2022/05/06 04:39:47;;;;;;;6.97;3.22;;;;;;;;;;2586018;23;20438;-79
2022/05/06 04:40:50;;;;;;;5.53;3.05;;;;;;;;;;2569006;23;19992;-78
2022/05/06 04:41:50;;;;;;;6.72;4.22;;;;;;;;;;2557247;23;20059;-78
2022/05/06 04:42:51;;;;;;;8.35;3.53;;;;;;;;;;2573348;23;20419;-79
2022/05/06 04:43:51;;;;;;;6.85;3.22;;;;;;;;;;2586720;23;20011;-79
2022/05/06 04:45:00;;;;;;;4.72;3.40;;;;;;;;;;2586139;23;19996;-79
2022/05/06 04:46:03;;;;;;;4.68;3.10;;;;;;;;;;2586609;23;19992;-79
2022/05/06 04:47:05;;;;;;;6.13;3.85;;;;;;;;;;2586574;23;19992;-79
2022/05/06 04:48:08;;;;;;;5.95;3.53;;;;;;;;;;2586347;23;19988;-79
2022/05/06 04:49:11;;;;;;;4.15;3.03;;;;;;;;;;2569025;23;19993;-79
2022/05/06 04:50:14;;;;;;;5.70;3.55;;;;;;;;;;2557240;23;20071;-79
2022/05/06 04:51:17;;;;;;;6.03;3.83;;;;;;;;;;2573282;23;20003;-79
2022/05/06 04:52:20;;;;;;;6.93;3.38;;;;;;;;;;2586451;23;20006;-79
2022/05/06 04:53:21;;;;;;;7.55;3.33;;;;;;;;;;2586548;23;20000;-79
2022/05/06 04:54:24;;;;;;;5.28;3.13;;;;;;;;;;2569108;23;20052;-79
2022/05/06 04:55:28;;;;;;;6.57;3.20;;;;;;;;;;2557598;23;20432;-79
2022/05/06 04:56:31;;;;;;;5.60;2.80;;;;;;;;;;2573922;23;20007;-79
2022/05/06 04:57:36;;;;;;;4.70;3.20;;;;;;;;;;2586390;23;19999;-79
2022/05/06 04:58:36;;;;;;;3.35;2.72;;;;;;;;;;2586457;23;19996;-79
2022/05/06 04:59:47;;;;;;;4.65;3.03;;;;;;;;;;2586532;23;19996;-79
2022/05/06 05:00:50;;;;;;;6.38;3.88;;;;;;;;;;2586521;22;19991;-79
2022/05/06 05:01:53;;;;;;;3.95;3.15;;;;;;;;;;2586479;23;19984;-79
2022/05/06 05:02:53;;;;;;;6.35;2.92;;;;;;;;;;2586436;23;19992;-79
2022/05/06 05:03:59;;;;;;;7.22;2.83;;;;;;;;;;2586424;23;20038;-79
2022/05/06 05:05:09;;;;;;;4.80;2.67;;;;;;;;;;2573509;23;20040;-79
2022/05/06 05:06:20;;;;;;;5.97;2.95;;;;;;;;;;2575338;23;20427;-79
2022/05/06 05:07:20;;;;;;;7.30;2.30;;;;;;;;;;2586747;23;19992;-79
2022/05/06 05:08:26;;;;;;;6.32;2.78;;;;;;;;;;2581640;23;20054;-79
2022/05/06 05:09:27;;;;;;;4.60;2.45;;;;;;;;;;2581955;23;20031;-79
2022/05/06 05:10:27;;;;;;;4.15;2.63;;;;;;;;;;2586642;23;20004;-79
2022/05/06 05:11:29;;;;;;;3.83;2.55;;;;;;;;;;2586409;22;20395;-78
2022/05/06 05:12:31;;;;;;;3.70;2.45;;;;;;;;;;2569205;23;20068;-78
2022/05/06 05:13:34;;;;;;;6.03;2.92;;;;;;;;;;2573675;23;20000;-78
2022/05/06 05:14:41;;;;;;;5.97;3.33;;;;;;;;;;2569309;23;19996;-78
2022/05/06 05:15:42;;;;;;;5.75;2.65;;;;;;;;;;2562104;23;19992;-78
2022/05/06 05:16:42;;;;;;;6.50;3.03;;;;;;;;;;2574330;23;19993;-78
2022/05/06 05:17:47;;;;;;;5.07;2.80;;;;;;;;;;2586248;23;20386;-78
2022/05/06 05:18:50;;;;;;;8.07;2.70;;;;;;;;;;2586487;23;20024;-78
2022/05/06 05:20:51;;;;;;;4.28;2.40;;;;;;;;;;2567791;23;20055;-78
2022/05/06 05:22:57;;;;;;;4.35;2.38;;;;;;;;;;2542239;23;20439;-78
2022/05/06 05:24:16;;;;;;;2.67;2.03;;;;;;;;;;2531132;23;20084;-78
2022/05/06 05:25:55;;;;;;;3.20;2.33;;;;;;;;;;2551191;23;20072;-78
2022/05/06 05:27:31;;;;;;;;;;;;;;;;;;;;;
2022/05/06 05:29:08;;;;;;;;;;;;;;;;;;;;;
2022/05/06 05:33:14;;;;;;;4.35;2.58;;;;;;;;;;2606923;22;20026;-78
2022/05/06 05:38:21;;;;;;;4.32;2.70;;;;;;;;;;2567181;23;20015;-79
2022/05/06 05:41:53;;;;;;;3.25;2.20;;;;;;;;;;2562291;22;20011;-78
2022/05/06 05:49:09;;;;;;;3.55;1.80;;;;;;;;;;2609939;22;20232;-78
2022/05/06 05:51:03;;;;;;;4.90;2.05;;;;;;;;;;2559040;23;20012;-78
2022/05/06 05:52:07;;;;;;;4.28;1.58;;;;;;;;;;2607080;22;20318;-78
2022/05/06 05:53:20;;;;;;;6.28;2.00;;;;;;;;;;2611709;22;19995;-77
2022/05/06 05:54:21;;;;;;;5.03;2.38;;;;;;;;;;2586067;23;20000;-77
2022/05/06 05:55:25;;;;;;;4.13;2.20;;;;;;;;;;2587394;22;19996;-77
2022/05/06 05:56:25;;;;;;;3.55;2.05;;;;;;;;;;2611899;22;20025;-77
2022/05/06 05:57:26;;;;;;;3.63;2.15;;;;;;;;;;2612252;22;20003;-78
2022/05/06 05:58:39;;;;;;;;;;;;;;;;;;;;;
2022/05/06 05:59:43;;;;;;;5.75;2.70;;;;;;;;;;2611990;22;20368;-77
2022/05/06 06:00:43;;;;;;;3.38;2.05;;;;;;;;;;2594464;22;20003;-78
2022/05/06 06:01:43;;;;;;;3.05;2.50;;;;;;;;;;2598539;22;20433;-77
2022/05/06 06:02:46;;;;;;;3.58;2.45;;;;;;;;;;2612045;22;20516;-77
2022/05/06 06:03:47;;;;;;;4.10;2.33;;;;;;;;;;2611935;22;20001;-77
2022/05/06 06:04:47;;;;;;;6.00;2.67;;;;;;;;;;2612006;22;19991;-77
2022/05/06 06:05:47;;;;;;;3.75;2.30;;;;;;;;;;2612295;22;20394;-78
2022/05/06 06:06:48;;;;;;;5.25;2.55;;;;;;;;;;2611727;22;20392;-77
2022/05/06 06:07:51;;;;;;;5.55;2.65;;;;;;;;;;2612133;22;20549;-77
2022/05/06 06:08:51;;;;;;;4.88;2.65;;;;;;;;;;2607156;22;20091;-77
2022/05/06 06:09:52;;;;;;;4.80;2.60;;;;;;;;;;2611446;22;20413;-77
2022/05/06 06:10:53;;;;;;;5.13;2.75;;;;;;;;;;2594293;22;20075;-77
2022/05/06 06:11:53;;;;;;;4.07;2.53;;;;;;;;;;2598468;22;19999;-77
2022/05/06 06:12:57;;;;;;;5.00;2.55;;;;;;;;;;2594387;22;19999;-77
2022/05/06 06:13:57;;;;;;;4.60;2.47;;;;;;;;;;2599280;22;19992;-77
2022/05/06 06:15:00;;;;;;;3.97;2.65;;;;;;;;;;2611779;22;20452;-77
2022/05/06 06:16:00;;;;;;;7.45;2.67;;;;;;;;;;2611797;22;19994;-78
2022/05/06 06:17:08;;;;;;;4.07;2.50;;;;;;;;;;2611892;22;19995;-78
2022/05/06 06:18:09;;;;;;;2.63;2.42;;;;;;;;;;2612196;22;20034;-77
2022/05/06 06:19:10;;;;;;;7.65;2.92;;;;;;;;;;2611980;22;20305;-77
2022/05/06 06:20:11;;;;;;;4.65;2.55;;;;;;;;;;2612089;22;19995;-77
2022/05/06 06:21:11;;;;;;;3.55;2.30;;;;;;;;;;2598853;22;20029;-80
2022/05/06 06:22:12;;;;;;;4.63;2.50;;;;;;;;;;2599098;22;20058;-79
2022/05/06 06:23:13;;;;;;;4.43;2.22;;;;;;;;;;2594174;22;19995;-80
2022/05/06 06:24:13;;;;;;;3.85;2.28;;;;;;;;;;2598484;22;19991;-78
2022/05/06 06:25:16;;;;;;;4.97;2.30;;;;;;;;;;2594364;22;20061;-79
2022/05/06 06:26:20;;;;;;;3.65;2.58;;;;;;;;;;2594871;22;20003;-77
2022/05/06 06:27:28;;;;;;;3.30;2.40;;;;;;;;;;2611761;22;20018;-80
2022/05/06 06:28:28;;;;;;;3.05;2.55;;;;;;;;;;2611815;22;19995;-78
2022/05/06 06:29:31;;;;;;;4.60;2.88;;;;;;;;;;2607282;22;20058;-78
2022/05/06 06:30:32;;;;;;;3.45;2.58;;;;;;;;;;2611903;22;19995;-78
2022/05/06 06:31:32;;;;;;;3.65;2.30;;;;;;;;;;2612026;22;19995;-78
2022/05/06 06:32:33;;;;;;;3.60;2.30;;;;;;;;;;2607160;22;20077;-83
2022/05/06 06:33:37;;;;;;;4.35;2.60;;;;;;;;;;2594396;22;19996;-79
2022/05/06 06:34:40;;;;;;;4.55;2.88;;;;;;;;;;2599582;22;20377;-78
2022/05/06 06:35:40;;;;;;;3.22;2.42;;;;;;;;;;2612013;22;19995;-78
2022/05/06 06:36:41;;;;;;;5.85;2.55;;;;;;;;;;2606603;22;20417;-79
2022/05/06 06:37:44;;;;;;;6.53;3.78;;;;;;;;;;2610998;22;20058;-79
2022/05/06 06:38:46;;;;;;;8.50;4.03;;;;;;;;;;2611732;22;20013;-79
2022/05/06 06:39:50;;;;;;;9.73;3.85;;;;;;;;;;2594934;22;20037;-79
2022/05/06 06:40:53;;;;;;;5.60;4.07;;;;;;;;;;2599859;22;20007;-79
2022/05/06 06:41:53;;;;;;;4.35;3.30;;;;;;;;;;2612739;22;19984;-79
2022/05/06 06:43:00;;;;;;;5.35;2.97;;;;;;;;;;2612792;22;20022;-79
2022/05/06 06:44:00;;;;;;;3.58;2.90;;;;;;;;;;2612779;22;20062;-79
2022/05/06 06:45:01;;;;;;;4.68;3.10;;;;;;;;;;2612758;22;19987;-78
2022/05/06 06:46:04;;;;;;;5.20;3.30;;;;;;;;;;2594665;22;19999;-78
2022/05/06 06:47:11;;;;;;;4.30;3.13;;;;;;;;;;2600072;22;20089;-78
2022/05/06 06:48:11;;;;;;;7.22;3.55;;;;;;;;;;2612626;22;20075;-79
2022/05/06 06:49:12;;;;;;;5.82;3.20;;;;;;;;;;2612647;22;20417;-79
2022/05/06 06:50:15;;;;;;;4.85;3.55;;;;;;;;;;2612522;22;20015;-79
2022/05/06 06:51:15;;;;;;;4.90;3.83;;;;;;;;;;2612519;22;20313;-79
2022/05/06 06:52:16;;;;;;;7.07;3.72;;;;;;;;;;2612700;22;20003;-78
2022/05/06 06:53:16;;;;;;;6.05;3.53;;;;;;;;;;2612828;22;19999;-78
2022/05/06 06:54:16;;;;;;;4.75;3.47;;;;;;;;;;2595111;22;20090;-81
2022/05/06 06:55:18;;;;;;;4.63;3.60;;;;;;;;;;2599446;22;19992;-78